sensor_id;sensor_type;location;lat;lon;timestamp;P1;durP1;ratioP1;P2;durP2;ratioP2
1829;SDS011;914;48.118;11.600;2023-02-21T00:01:48;4.33;;;2.60;;
1829;SDS011;914;48.118;11.600;2023-02-21T00:04:32;4.40;;;2.80;;
1829;SDS011;914;48.118;11.600;2023-02-21T00:07:17;5.27;;;2.63;;
1829;SDS011;914;48.118;11.600;2023-02-21T00:10:04;3.40;;;2.50;;
1829;SDS011;914;48.118;11.600;2023-02-21T00:12:49;3.13;;;2.43;;
1829;SDS011;914;48.118;11.600;2023-02-21T00:15:34;3.63;;;2.40;;
1829;SDS011;914;48.118;11.600;2023-02-21T00:18:18;4.10;;;2.40;;
1829;SDS011;914;48.118;11.600;2023-02-21T00:21:03;4.93;;;2.60;;
1829;SDS011;914;48.118;11.600;2023-02-21T00:23:48;3.13;;;2.10;;
1829;SDS011;914;48.118;11.600;2023-02-21T00:26:32;2.20;;;2.00;;
1829;SDS011;914;48.118;11.600;2023-02-21T00:29:16;5.17;;;1.97;;
1829;SDS011;914;48.118;11.600;2023-02-21T00:32:01;2.90;;;2.00;;
1829;SDS011;914;48.118;11.600;2023-02-21T00:34:45;2.00;;;1.80;;
1829;SDS011;914;48.118;11.600;2023-02-21T00:37:30;2.50;;;2.30;;
1829;SDS011;914;48.118;11.600;2023-02-21T00:40:15;3.40;;;2.63;;
1829;SDS011;914;48.118;11.600;2023-02-21T00:43:00;3.43;;;2.43;;
1829;SDS011;914;48.118;11.600;2023-02-21T00:45:45;4.17;;;2.03;;
1829;SDS011;914;48.118;11.600;2023-02-21T00:48:29;2.20;;;2.00;;
1829;SDS011;914;48.118;11.600;2023-02-21T00:51:14;3.33;;;2.23;;
1829;SDS011;914;48.118;11.600;2023-02-21T00:53:59;5.30;;;2.27;;
1829;SDS011;914;48.118;11.600;2023-02-21T00:56:43;2.40;;;2.17;;
1829;SDS011;914;48.118;11.600;2023-02-21T00:59:28;2.70;;;2.00;;
1829;SDS011;914;48.118;11.600;2023-02-21T01:02:13;5.00;;;2.43;;
1829;SDS011;914;48.118;11.600;2023-02-21T01:04:57;2.97;;;2.10;;
1829;SDS011;914;48.118;11.600;2023-02-21T01:07:41;3.00;;;2.30;;
1829;SDS011;914;48.118;11.600;2023-02-21T01:10:25;2.53;;;2.00;;
1829;SDS011;914;48.118;11.600;2023-02-21T01:13:11;2.30;;;2.10;;
1829;SDS011;914;48.118;11.600;2023-02-21T01:15:55;4.00;;;2.40;;
1829;SDS011;914;48.118;11.600;2023-02-21T01:18:40;3.67;;;2.30;;
1829;SDS011;914;48.118;11.600;2023-02-21T01:21:24;2.93;;;2.20;;
1829;SDS011;914;48.118;11.600;2023-02-21T01:24:11;3.67;;;1.93;;
1829;SDS011;914;48.118;11.600;2023-02-21T01:26:57;5.13;;;2.50;;
1829;SDS011;914;48.118;11.600;2023-02-21T01:29:42;3.07;;;2.17;;
1829;SDS011;914;48.118;11.600;2023-02-21T01:32:26;4.83;;;2.43;;
1829;SDS011;914;48.118;11.600;2023-02-21T01:35:11;4.17;;;2.73;;
1829;SDS011;914;48.118;11.600;2023-02-21T01:37:56;4.57;;;2.60;;
1829;SDS011;914;48.118;11.600;2023-02-21T01:40:40;2.50;;;2.27;;
1829;SDS011;914;48.118;11.600;2023-02-21T01:43:25;3.63;;;2.47;;
1829;SDS011;914;48.118;11.600;2023-02-21T01:46:17;2.70;;;2.40;;
1829;SDS011;914;48.118;11.600;2023-02-21T01:49:21;3.30;;;2.20;;
1829;SDS011;914;48.118;11.600;2023-02-21T01:52:05;3.57;;;2.13;;
1829;SDS011;914;48.118;11.600;2023-02-21T01:54:51;6.17;;;2.20;;
1829;SDS011;914;48.118;11.600;2023-02-21T01:57:38;4.57;;;2.67;;
1829;SDS011;914;48.118;11.600;2023-02-21T02:00:23;4.23;;;2.40;;
1829;SDS011;914;48.118;11.600;2023-02-21T02:03:09;4.10;;;2.20;;
1829;SDS011;914;48.118;11.600;2023-02-21T02:05:59;2.70;;;2.30;;
1829;SDS011;914;48.118;11.600;2023-02-21T02:08:47;3.97;;;2.37;;
1829;SDS011;914;48.118;11.600;2023-02-21T02:17:55;6.43;;;2.30;;
1829;SDS011;914;48.118;11.600;2023-02-21T02:20:46;3.40;;;2.03;;
1829;SDS011;914;48.118;11.600;2023-02-21T02:29:11;2.67;;;2.13;;
1829;SDS011;914;48.118;11.600;2023-02-21T02:34:18;3.37;;;2.20;;
1829;SDS011;914;48.118;11.600;2023-02-21T02:37:04;2.53;;;1.90;;
1829;SDS011;914;48.118;11.600;2023-02-21T02:42:39;3.97;;;2.10;;
1829;SDS011;914;48.118;11.600;2023-02-21T02:45:34;2.00;;;1.80;;
1829;SDS011;914;48.118;11.600;2023-02-21T02:50:45;3.00;;;1.67;;
1829;SDS011;914;48.118;11.600;2023-02-21T02:53:15;2.93;;;1.63;;
1829;SDS011;914;48.118;11.600;2023-02-21T02:55:48;3.53;;;1.70;;
1829;SDS011;914;48.118;11.600;2023-02-21T02:58:20;4.53;;;2.00;;
1829;SDS011;914;48.118;11.600;2023-02-21T03:00:56;3.53;;;1.73;;
1829;SDS011;914;48.118;11.600;2023-02-21T03:09:26;2.73;;;1.80;;
1829;SDS011;914;48.118;11.600;2023-02-21T03:12:19;2.40;;;1.70;;
1829;SDS011;914;48.118;11.600;2023-02-21T03:14:59;1.90;;;1.67;;
1829;SDS011;914;48.118;11.600;2023-02-21T03:17:36;1.60;;;1.50;;
1829;SDS011;914;48.118;11.600;2023-02-21T03:20:05;3.63;;;1.80;;
1829;SDS011;914;48.118;11.600;2023-02-21T03:22:34;3.07;;;1.50;;
1829;SDS011;914;48.118;11.600;2023-02-21T03:25:01;3.50;;;1.93;;
1829;SDS011;914;48.118;11.600;2023-02-21T03:27:28;2.67;;;2.00;;
1829;SDS011;914;48.118;11.600;2023-02-21T03:29:56;2.10;;;1.70;;
1829;SDS011;914;48.118;11.600;2023-02-21T03:32:25;2.47;;;1.57;;
1829;SDS011;914;48.118;11.600;2023-02-21T03:34:54;5.07;;;1.90;;
1829;SDS011;914;48.118;11.600;2023-02-21T03:37:31;5.73;;;1.73;;
1829;SDS011;914;48.118;11.600;2023-02-21T03:40:02;2.67;;;2.03;;
1829;SDS011;914;48.118;11.600;2023-02-21T03:42:29;3.33;;;1.80;;
1829;SDS011;914;48.118;11.600;2023-02-21T03:44:55;1.90;;;1.80;;
1829;SDS011;914;48.118;11.600;2023-02-21T03:47:21;3.27;;;2.00;;
1829;SDS011;914;48.118;11.600;2023-02-21T03:49:46;2.57;;;1.80;;
1829;SDS011;914;48.118;11.600;2023-02-21T03:52:12;3.30;;;1.80;;
1829;SDS011;914;48.118;11.600;2023-02-21T03:54:38;3.37;;;1.80;;
1829;SDS011;914;48.118;11.600;2023-02-21T03:57:04;2.17;;;1.60;;
1829;SDS011;914;48.118;11.600;2023-02-21T03:59:30;2.10;;;1.90;;
1829;SDS011;914;48.118;11.600;2023-02-21T04:01:56;1.97;;;1.70;;
1829;SDS011;914;48.118;11.600;2023-02-21T04:04:22;3.70;;;1.70;;
1829;SDS011;914;48.118;11.600;2023-02-21T04:06:47;2.47;;;1.57;;
1829;SDS011;914;48.118;11.600;2023-02-21T04:09:13;2.63;;;1.77;;
1829;SDS011;914;48.118;11.600;2023-02-21T04:11:43;4.30;;;1.60;;
1829;SDS011;914;48.118;11.600;2023-02-21T04:14:09;2.00;;;1.80;;
1829;SDS011;914;48.118;11.600;2023-02-21T04:16:34;3.40;;;1.80;;
1829;SDS011;914;48.118;11.600;2023-02-21T04:19:00;2.57;;;1.70;;
1829;SDS011;914;48.118;11.600;2023-02-21T04:21:26;2.73;;;1.87;;
1829;SDS011;914;48.118;11.600;2023-02-21T04:23:52;2.20;;;2.00;;
1829;SDS011;914;48.118;11.600;2023-02-21T04:26:17;2.27;;;1.80;;
1829;SDS011;914;48.118;11.600;2023-02-21T04:28:43;2.63;;;2.10;;
1829;SDS011;914;48.118;11.600;2023-02-21T04:31:08;3.27;;;2.17;;
1829;SDS011;914;48.118;11.600;2023-02-21T04:33:34;3.37;;;2.13;;
1829;SDS011;914;48.118;11.600;2023-02-21T04:36:00;3.60;;;2.17;;
1829;SDS011;914;48.118;11.600;2023-02-21T04:38:26;3.87;;;2.03;;
1829;SDS011;914;48.118;11.600;2023-02-21T04:40:51;1.77;;;1.67;;
1829;SDS011;914;48.118;11.600;2023-02-21T04:43:17;2.80;;;2.00;;
1829;SDS011;914;48.118;11.600;2023-02-21T04:45:45;3.83;;;1.90;;
1829;SDS011;914;48.118;11.600;2023-02-21T04:48:10;3.83;;;2.10;;
1829;SDS011;914;48.118;11.600;2023-02-21T04:50:36;5.97;;;2.07;;
1829;SDS011;914;48.118;11.600;2023-02-21T04:53:02;2.07;;;1.87;;
1829;SDS011;914;48.118;11.600;2023-02-21T04:55:27;3.33;;;1.97;;
1829;SDS011;914;48.118;11.600;2023-02-21T04:57:53;3.60;;;1.67;;
1829;SDS011;914;48.118;11.600;2023-02-21T05:00:18;2.00;;;1.83;;
1829;SDS011;914;48.118;11.600;2023-02-21T05:02:44;2.27;;;1.70;;
1829;SDS011;914;48.118;11.600;2023-02-21T05:05:10;3.13;;;1.57;;
1829;SDS011;914;48.118;11.600;2023-02-21T05:07:36;1.80;;;1.63;;
1829;SDS011;914;48.118;11.600;2023-02-21T05:10:02;3.67;;;2.00;;
1829;SDS011;914;48.118;11.600;2023-02-21T05:12:30;2.07;;;1.80;;
1829;SDS011;914;48.118;11.600;2023-02-21T05:14:56;4.17;;;1.90;;
1829;SDS011;914;48.118;11.600;2023-02-21T05:17:21;2.63;;;1.80;;
1829;SDS011;914;48.118;11.600;2023-02-21T05:19:47;2.73;;;1.77;;
1829;SDS011;914;48.118;11.600;2023-02-21T05:22:13;3.13;;;1.77;;
1829;SDS011;914;48.118;11.600;2023-02-21T05:24:44;3.83;;;1.70;;
1829;SDS011;914;48.118;11.600;2023-02-21T05:27:11;2.33;;;1.90;;
1829;SDS011;914;48.118;11.600;2023-02-21T05:29:40;2.40;;;1.80;;
1829;SDS011;914;48.118;11.600;2023-02-21T05:32:06;2.77;;;2.00;;
1829;SDS011;914;48.118;11.600;2023-02-21T05:34:33;4.57;;;2.17;;
1829;SDS011;914;48.118;11.600;2023-02-21T05:36:58;2.03;;;1.90;;
1829;SDS011;914;48.118;11.600;2023-02-21T05:39:24;3.37;;;1.90;;
1829;SDS011;914;48.118;11.600;2023-02-21T05:41:50;4.07;;;2.00;;
1829;SDS011;914;48.118;11.600;2023-02-21T05:44:16;3.20;;;2.17;;
1829;SDS011;914;48.118;11.600;2023-02-21T05:46:42;2.20;;;1.70;;
1829;SDS011;914;48.118;11.600;2023-02-21T05:49:10;5.77;;;1.90;;
1829;SDS011;914;48.118;11.600;2023-02-21T05:51:36;3.20;;;2.00;;
1829;SDS011;914;48.118;11.600;2023-02-21T05:54:04;3.33;;;1.63;;
1829;SDS011;914;48.118;11.600;2023-02-21T05:56:36;2.83;;;1.80;;
1829;SDS011;914;48.118;11.600;2023-02-21T05:59:05;4.77;;;1.93;;
1829;SDS011;914;48.118;11.600;2023-02-21T06:01:31;2.33;;;1.80;;
1829;SDS011;914;48.118;11.600;2023-02-21T06:03:56;2.13;;;1.93;;
1829;SDS011;914;48.118;11.600;2023-02-21T06:06:22;3.20;;;2.10;;
1829;SDS011;914;48.118;11.600;2023-02-21T06:08:48;3.07;;;2.00;;
1829;SDS011;914;48.118;11.600;2023-02-21T06:11:15;2.40;;;1.87;;
1829;SDS011;914;48.118;11.600;2023-02-21T06:13:48;3.43;;;1.67;;
1829;SDS011;914;48.118;11.600;2023-02-21T06:16:15;3.83;;;2.03;;
1829;SDS011;914;48.118;11.600;2023-02-21T06:18:41;3.27;;;1.93;;
1829;SDS011;914;48.118;11.600;2023-02-21T06:21:06;2.77;;;1.60;;
1829;SDS011;914;48.118;11.600;2023-02-21T06:23:32;4.90;;;1.73;;
1829;SDS011;914;48.118;11.600;2023-02-21T06:25:58;3.10;;;1.83;;
1829;SDS011;914;48.118;11.600;2023-02-21T06:28:30;1.93;;;1.60;;
1829;SDS011;914;48.118;11.600;2023-02-21T06:30:56;2.77;;;1.70;;
1829;SDS011;914;48.118;11.600;2023-02-21T06:33:22;3.10;;;1.40;;
1829;SDS011;914;48.118;11.600;2023-02-21T06:35:48;6.03;;;2.00;;
1829;SDS011;914;48.118;11.600;2023-02-21T06:38:13;4.50;;;1.80;;
1829;SDS011;914;48.118;11.600;2023-02-21T06:40:39;4.70;;;1.70;;
1829;SDS011;914;48.118;11.600;2023-02-21T06:43:05;4.17;;;1.80;;
1829;SDS011;914;48.118;11.600;2023-02-21T06:45:30;3.40;;;1.47;;
1829;SDS011;914;48.118;11.600;2023-02-21T06:47:56;3.00;;;1.97;;
1829;SDS011;914;48.118;11.600;2023-02-21T06:50:22;3.80;;;1.37;;
1829;SDS011;914;48.118;11.600;2023-02-21T06:52:47;2.63;;;1.50;;
1829;SDS011;914;48.118;11.600;2023-02-21T06:55:18;5.47;;;1.70;;
1829;SDS011;914;48.118;11.600;2023-02-21T06:57:44;2.07;;;1.77;;
1829;SDS011;914;48.118;11.600;2023-02-21T07:00:10;2.73;;;1.87;;
1829;SDS011;914;48.118;11.600;2023-02-21T07:02:36;2.93;;;2.00;;
1829;SDS011;914;48.118;11.600;2023-02-21T07:05:03;2.33;;;1.90;;
1829;SDS011;914;48.118;11.600;2023-02-21T07:07:29;2.33;;;1.83;;
1829;SDS011;914;48.118;11.600;2023-02-21T07:09:55;2.20;;;1.83;;
1829;SDS011;914;48.118;11.600;2023-02-21T07:12:21;4.10;;;1.80;;
1829;SDS011;914;48.118;11.600;2023-02-21T07:14:46;3.53;;;1.80;;
1829;SDS011;914;48.118;11.600;2023-02-21T07:17:12;3.73;;;2.10;;
1829;SDS011;914;48.118;11.600;2023-02-21T07:19:37;3.47;;;1.87;;
1829;SDS011;914;48.118;11.600;2023-02-21T07:22:03;3.77;;;1.90;;
1829;SDS011;914;48.118;11.600;2023-02-21T07:24:29;3.70;;;2.10;;
1829;SDS011;914;48.118;11.600;2023-02-21T07:26:54;2.53;;;1.97;;
1829;SDS011;914;48.118;11.600;2023-02-21T07:29:20;2.80;;;2.30;;
1829;SDS011;914;48.118;11.600;2023-02-21T07:31:46;3.93;;;2.37;;
1829;SDS011;914;48.118;11.600;2023-02-21T07:34:12;5.83;;;2.30;;
1829;SDS011;914;48.118;11.600;2023-02-21T07:36:39;6.77;;;2.40;;
1829;SDS011;914;48.118;11.600;2023-02-21T07:39:05;2.97;;;1.87;;
1829;SDS011;914;48.118;11.600;2023-02-21T07:41:30;3.30;;;1.97;;
1829;SDS011;914;48.118;11.600;2023-02-21T07:43:56;1.70;;;1.60;;
1829;SDS011;914;48.118;11.600;2023-02-21T07:46:24;4.07;;;1.70;;
1829;SDS011;914;48.118;11.600;2023-02-21T07:48:51;5.07;;;1.90;;
1829;SDS011;914;48.118;11.600;2023-02-21T07:51:17;4.43;;;2.43;;
1829;SDS011;914;48.118;11.600;2023-02-21T07:53:43;2.93;;;1.87;;
1829;SDS011;914;48.118;11.600;2023-02-21T07:56:09;4.47;;;1.70;;
1829;SDS011;914;48.118;11.600;2023-02-21T07:58:35;5.57;;;2.00;;
1829;SDS011;914;48.118;11.600;2023-02-21T08:01:04;2.70;;;1.90;;
1829;SDS011;914;48.118;11.600;2023-02-21T08:03:31;3.87;;;2.10;;
1829;SDS011;914;48.118;11.600;2023-02-21T08:05:58;7.70;;;2.00;;
1829;SDS011;914;48.118;11.600;2023-02-21T08:08:24;1.60;;;1.40;;
1829;SDS011;914;48.118;11.600;2023-02-21T08:10:50;2.30;;;1.73;;
1829;SDS011;914;48.118;11.600;2023-02-21T08:13:16;3.87;;;1.50;;
1829;SDS011;914;48.118;11.600;2023-02-21T08:15:41;4.10;;;1.70;;
1829;SDS011;914;48.118;11.600;2023-02-21T08:18:14;3.63;;;1.80;;
1829;SDS011;914;48.118;11.600;2023-02-21T08:20:44;6.07;;;1.87;;
1829;SDS011;914;48.118;11.600;2023-02-21T08:23:11;5.90;;;1.87;;
1829;SDS011;914;48.118;11.600;2023-02-21T08:25:37;3.30;;;2.00;;
1829;SDS011;914;48.118;11.600;2023-02-21T08:28:03;6.97;;;2.10;;
1829;SDS011;914;48.118;11.600;2023-02-21T08:30:28;2.33;;;1.90;;
1829;SDS011;914;48.118;11.600;2023-02-21T08:32:54;3.83;;;1.70;;
1829;SDS011;914;48.118;11.600;2023-02-21T08:35:20;4.20;;;2.00;;
1829;SDS011;914;48.118;11.600;2023-02-21T08:37:46;4.77;;;2.00;;
1829;SDS011;914;48.118;11.600;2023-02-21T08:40:13;2.30;;;2.00;;
1829;SDS011;914;48.118;11.600;2023-02-21T08:42:39;8.00;;;1.90;;
1829;SDS011;914;48.118;11.600;2023-02-21T08:45:05;2.47;;;1.87;;
1829;SDS011;914;48.118;11.600;2023-02-21T08:47:35;4.13;;;1.70;;
1829;SDS011;914;48.118;11.600;2023-02-21T08:50:01;5.93;;;2.00;;
1829;SDS011;914;48.118;11.600;2023-02-21T08:52:27;2.63;;;1.67;;
1829;SDS011;914;48.118;11.600;2023-02-21T08:54:52;4.53;;;1.50;;
1829;SDS011;914;48.118;11.600;2023-02-21T08:57:18;7.30;;;2.20;;
1829;SDS011;914;48.118;11.600;2023-02-21T08:59:44;7.40;;;2.10;;
1829;SDS011;914;48.118;11.600;2023-02-21T09:02:14;3.63;;;2.00;;
1829;SDS011;914;48.118;11.600;2023-02-21T09:04:44;4.33;;;1.87;;
1829;SDS011;914;48.118;11.600;2023-02-21T09:07:11;7.33;;;2.00;;
1829;SDS011;914;48.118;11.600;2023-02-21T09:09:38;1.60;;;1.50;;
1829;SDS011;914;48.118;11.600;2023-02-21T09:12:03;3.07;;;1.70;;
1829;SDS011;914;48.118;11.600;2023-02-21T09:14:32;2.27;;;1.60;;
1829;SDS011;914;48.118;11.600;2023-02-21T09:17:03;2.87;;;1.77;;
1829;SDS011;914;48.118;11.600;2023-02-21T09:19:30;1.90;;;1.30;;
1829;SDS011;914;48.118;11.600;2023-02-21T09:21:56;3.83;;;1.50;;
1829;SDS011;914;48.118;11.600;2023-02-21T09:24:23;1.70;;;1.40;;
1829;SDS011;914;48.118;11.600;2023-02-21T09:26:51;3.47;;;1.83;;
1829;SDS011;914;48.118;11.600;2023-02-21T09:29:23;1.93;;;1.73;;
1829;SDS011;914;48.118;11.600;2023-02-21T09:31:49;3.70;;;1.40;;
1829;SDS011;914;48.118;11.600;2023-02-21T09:34:16;1.77;;;1.30;;
1829;SDS011;914;48.118;11.600;2023-02-21T09:36:42;2.17;;;1.40;;
1829;SDS011;914;48.118;11.600;2023-02-21T09:39:08;1.83;;;1.50;;
1829;SDS011;914;48.118;11.600;2023-02-21T09:41:36;3.07;;;1.53;;
1829;SDS011;914;48.118;11.600;2023-02-21T09:44:04;3.07;;;1.50;;
1829;SDS011;914;48.118;11.600;2023-02-21T09:46:44;4.30;;;1.73;;
1829;SDS011;914;48.118;11.600;2023-02-21T09:49:34;3.13;;;1.37;;
1829;SDS011;914;48.118;11.600;2023-02-21T09:52:01;3.10;;;1.50;;
1829;SDS011;914;48.118;11.600;2023-02-21T09:54:34;2.33;;;1.47;;
1829;SDS011;914;48.118;11.600;2023-02-21T09:57:04;4.77;;;1.50;;
1829;SDS011;914;48.118;11.600;2023-02-21T09:59:34;1.90;;;1.40;;
1829;SDS011;914;48.118;11.600;2023-02-21T10:07:17;3.23;;;1.67;;
1829;SDS011;914;48.118;11.600;2023-02-21T10:10:10;2.10;;;1.40;;
1829;SDS011;914;48.118;11.600;2023-02-21T10:18:16;7.70;;;1.50;;
1829;SDS011;914;48.118;11.600;2023-02-21T10:20:52;1.07;;;0.97;;
1829;SDS011;914;48.118;11.600;2023-02-21T10:26:03;1.10;;;1.00;;
1829;SDS011;914;48.118;11.600;2023-02-21T10:28:33;3.00;;;1.07;;
1829;SDS011;914;48.118;11.600;2023-02-21T10:31:00;2.10;;;1.13;;
1829;SDS011;914;48.118;11.600;2023-02-21T10:33:31;4.07;;;1.10;;
1829;SDS011;914;48.118;11.600;2023-02-21T10:36:08;2.03;;;1.17;;
1829;SDS011;914;48.118;11.600;2023-02-21T10:38:46;3.03;;;1.10;;
1829;SDS011;914;48.118;11.600;2023-02-21T10:41:28;2.43;;;0.90;;
1829;SDS011;914;48.118;11.600;2023-02-21T10:44:33;1.47;;;1.07;;
1829;SDS011;914;48.118;11.600;2023-02-21T10:46:59;5.13;;;1.27;;
1829;SDS011;914;48.118;11.600;2023-02-21T10:49:38;2.60;;;1.13;;
1829;SDS011;914;48.118;11.600;2023-02-21T10:52:11;4.70;;;1.10;;
1829;SDS011;914;48.118;11.600;2023-02-21T10:54:41;1.53;;;1.00;;
1829;SDS011;914;48.118;11.600;2023-02-21T10:57:07;1.43;;;1.10;;
1829;SDS011;914;48.118;11.600;2023-02-21T10:59:38;1.53;;;1.20;;
1829;SDS011;914;48.118;11.600;2023-02-21T11:02:28;0.80;;;0.80;;
1829;SDS011;914;48.118;11.600;2023-02-21T11:05:16;1.63;;;1.17;;
1829;SDS011;914;48.118;11.600;2023-02-21T11:07:58;1.10;;;1.00;;
1829;SDS011;914;48.118;11.600;2023-02-21T11:10:33;1.93;;;1.10;;
1829;SDS011;914;48.118;11.600;2023-02-21T11:13:02;2.50;;;1.00;;
1829;SDS011;914;48.118;11.600;2023-02-21T11:15:47;0.97;;;0.97;;
1829;SDS011;914;48.118;11.600;2023-02-21T11:20:45;1.27;;;0.80;;
1829;SDS011;914;48.118;11.600;2023-02-21T11:23:30;1.48;;;1.17;;
1829;SDS011;914;48.118;11.600;2023-02-21T11:26:14;1.75;;;1.15;;
1829;SDS011;914;48.118;11.600;2023-02-21T11:28:44;1.63;;;0.85;;
1829;SDS011;914;48.118;11.600;2023-02-21T11:33:41;3.65;;;1.10;;
1829;SDS011;914;48.118;11.600;2023-02-21T11:36:35;1.10;;;1.00;;
1829;SDS011;914;48.118;11.600;2023-02-21T11:41:57;1.67;;;1.00;;
1829;SDS011;914;48.118;11.600;2023-02-21T11:44:31;1.27;;;1.17;;
1829;SDS011;914;48.118;11.600;2023-02-21T11:47:16;2.83;;;1.23;;
1829;SDS011;914;48.118;11.600;2023-02-21T11:50:05;1.42;;;1.10;;
1829;SDS011;914;48.118;11.600;2023-02-21T11:55:31;1.65;;;1.17;;
1829;SDS011;914;48.118;11.600;2023-02-21T12:09:27;1.50;;;1.13;;
1829;SDS011;914;48.118;11.600;2023-02-21T12:12:22;2.67;;;1.00;;
1829;SDS011;914;48.118;11.600;2023-02-21T12:14:48;0.80;;;0.80;;
1829;SDS011;914;48.118;11.600;2023-02-21T12:20:24;2.50;;;1.10;;
1829;SDS011;914;48.118;11.600;2023-02-21T12:23:04;2.38;;;1.10;;
1829;SDS011;914;48.118;11.600;2023-02-21T12:33:43;1.30;;;1.20;;
1829;SDS011;914;48.118;11.600;2023-02-21T12:45:15;1.63;;;1.10;;
1829;SDS011;914;48.118;11.600;2023-02-21T12:50:23;2.10;;;1.25;;
1829;SDS011;914;48.118;11.600;2023-02-21T12:55:37;1.40;;;1.10;;
1829;SDS011;914;48.118;11.600;2023-02-21T12:58:13;6.13;;;1.77;;
1829;SDS011;914;48.118;11.600;2023-02-21T13:03:30;1.20;;;1.10;;
1829;SDS011;914;48.118;11.600;2023-02-21T13:08:46;2.83;;;1.05;;
1829;SDS011;914;48.118;11.600;2023-02-21T13:11:20;1.60;;;1.00;;
1829;SDS011;914;48.118;11.600;2023-02-21T13:14:15;1.25;;;1.15;;
1829;SDS011;914;48.118;11.600;2023-02-21T13:16:44;1.02;;;0.93;;
1829;SDS011;914;48.118;11.600;2023-02-21T13:19:10;2.75;;;0.88;;
1829;SDS011;914;48.118;11.600;2023-02-21T13:24:42;2.10;;;1.25;;
1829;SDS011;914;48.118;11.600;2023-02-21T13:30:11;3.08;;;1.17;;
1829;SDS011;914;48.118;11.600;2023-02-21T13:33:00;1.73;;;0.90;;
1829;SDS011;914;48.118;11.600;2023-02-21T13:35:30;0.98;;;0.98;;
1829;SDS011;914;48.118;11.600;2023-02-21T13:38:00;1.20;;;1.00;;
1829;SDS011;914;48.118;11.600;2023-02-21T13:43:21;2.83;;;1.05;;
1829;SDS011;914;48.118;11.600;2023-02-21T13:57:40;1.67;;;1.00;;
1829;SDS011;914;48.118;11.600;2023-02-21T14:13:37;1.23;;;1.13;;
1829;SDS011;914;48.118;11.600;2023-02-21T14:21:04;1.10;;;1.00;;
1829;SDS011;914;48.118;11.600;2023-02-21T14:23:39;3.10;;;1.00;;
1829;SDS011;914;48.118;11.600;2023-02-21T14:26:33;1.27;;;1.00;;
1829;SDS011;914;48.118;11.600;2023-02-21T14:29:00;1.45;;;0.90;;
1829;SDS011;914;48.118;11.600;2023-02-21T14:31:48;3.08;;;1.10;;
1829;SDS011;914;48.118;11.600;2023-02-21T14:34:24;1.15;;;1.02;;
1829;SDS011;914;48.118;11.600;2023-02-21T14:37:05;1.10;;;1.00;;
1829;SDS011;914;48.118;11.600;2023-02-21T14:39:42;1.63;;;0.90;;
1829;SDS011;914;48.118;11.600;2023-02-21T14:45:01;2.38;;;0.98;;
1829;SDS011;914;48.118;11.600;2023-02-21T14:47:39;0.90;;;0.90;;
1829;SDS011;914;48.118;11.600;2023-02-21T15:02:16;1.00;;;0.90;;
1829;SDS011;914;48.118;11.600;2023-02-21T15:05:11;1.67;;;1.00;;
1829;SDS011;914;48.118;11.600;2023-02-21T15:10:20;1.23;;;0.90;;
1829;SDS011;914;48.118;11.600;2023-02-21T15:12:48;2.95;;;0.90;;
1829;SDS011;914;48.118;11.600;2023-02-21T15:15:39;1.02;;;0.77;;
1829;SDS011;914;48.118;11.600;2023-02-21T15:18:07;0.90;;;0.90;;
1829;SDS011;914;48.118;11.600;2023-02-21T15:23:39;0.85;;;0.80;;
1829;SDS011;914;48.118;11.600;2023-02-21T15:28:46;1.80;;;0.80;;
1829;SDS011;914;48.118;11.600;2023-02-21T15:31:27;1.80;;;0.90;;
1829;SDS011;914;48.118;11.600;2023-02-21T15:33:56;1.63;;;0.90;;
1829;SDS011;914;48.118;11.600;2023-02-21T15:36:21;2.28;;;1.00;;
1829;SDS011;914;48.118;11.600;2023-02-21T15:38:59;0.82;;;0.82;;
1829;SDS011;914;48.118;11.600;2023-02-21T15:44:07;1.75;;;1.00;;
1829;SDS011;914;48.118;11.600;2023-02-21T15:46:55;2.95;;;0.90;;
1829;SDS011;914;48.118;11.600;2023-02-21T15:49:30;1.23;;;1.02;;
1829;SDS011;914;48.118;11.600;2023-02-21T15:52:00;1.40;;;0.98;;
1829;SDS011;914;48.118;11.600;2023-02-21T15:54:34;2.73;;;1.00;;
1829;SDS011;914;48.118;11.600;2023-02-21T15:59:36;1.20;;;0.82;;
1829;SDS011;914;48.118;11.600;2023-02-21T16:02:16;1.13;;;0.90;;
1829;SDS011;914;48.118;11.600;2023-02-21T16:04:47;5.18;;;0.98;;
1829;SDS011;914;48.118;11.600;2023-02-21T16:07:19;1.45;;;1.05;;
1829;SDS011;914;48.118;11.600;2023-02-21T16:10:03;3.97;;;1.40;;
1829;SDS011;914;48.118;11.600;2023-02-21T16:12:39;2.72;;;1.23;;
1829;SDS011;914;48.118;11.600;2023-02-21T16:17:42;1.53;;;0.90;;
1829;SDS011;914;48.118;11.600;2023-02-21T16:20:16;1.50;;;1.00;;
1829;SDS011;914;48.118;11.600;2023-02-21T16:22:45;3.37;;;1.03;;
1829;SDS011;914;48.118;11.600;2023-02-21T16:25:15;6.80;;;1.10;;
1829;SDS011;914;48.118;11.600;2023-02-21T16:27:45;3.37;;;1.40;;
1829;SDS011;914;48.118;11.600;2023-02-21T16:30:18;5.70;;;1.13;;
1829;SDS011;914;48.118;11.600;2023-02-21T16:32:59;2.13;;;0.90;;
1829;SDS011;914;48.118;11.600;2023-02-21T16:35:29;3.33;;;1.27;;
1829;SDS011;914;48.118;11.600;2023-02-21T16:37:56;3.20;;;1.30;;
1829;SDS011;914;48.118;11.600;2023-02-21T16:40:30;7.60;;;1.37;;
1829;SDS011;914;48.118;11.600;2023-02-21T16:42:58;4.63;;;1.30;;
1829;SDS011;914;48.118;11.600;2023-02-21T16:45:26;1.77;;;1.40;;
1829;SDS011;914;48.118;11.600;2023-02-21T16:47:56;5.47;;;1.63;;
1829;SDS011;914;48.118;11.600;2023-02-21T16:52:59;7.67;;;2.10;;
1829;SDS011;914;48.118;11.600;2023-02-21T16:55:25;4.47;;;1.73;;
1829;SDS011;914;48.118;11.600;2023-02-21T16:57:56;7.03;;;2.17;;
1829;SDS011;914;48.118;11.600;2023-02-21T17:00:27;4.43;;;1.70;;
1829;SDS011;914;48.118;11.600;2023-02-21T17:02:54;5.20;;;1.83;;
1829;SDS011;914;48.118;11.600;2023-02-21T17:05:20;4.50;;;1.73;;
1829;SDS011;914;48.118;11.600;2023-02-21T17:07:47;10.37;;;1.80;;
1829;SDS011;914;48.118;11.600;2023-02-21T17:10:13;4.43;;;1.80;;
1829;SDS011;914;48.118;11.600;2023-02-21T17:12:39;4.40;;;1.80;;
1829;SDS011;914;48.118;11.600;2023-02-21T17:15:06;4.73;;;1.60;;
1829;SDS011;914;48.118;11.600;2023-02-21T17:17:31;11.07;;;2.00;;
1829;SDS011;914;48.118;11.600;2023-02-21T17:19:57;6.97;;;1.83;;
1829;SDS011;914;48.118;11.600;2023-02-21T17:22:23;6.47;;;1.93;;
1829;SDS011;914;48.118;11.600;2023-02-21T17:24:48;6.20;;;1.80;;
1829;SDS011;914;48.118;11.600;2023-02-21T17:27:15;5.20;;;1.60;;
1829;SDS011;914;48.118;11.600;2023-02-21T17:29:40;4.47;;;1.70;;
1829;SDS011;914;48.118;11.600;2023-02-21T17:32:06;3.03;;;2.00;;
1829;SDS011;914;48.118;11.600;2023-02-21T17:34:33;10.00;;;2.30;;
1829;SDS011;914;48.118;11.600;2023-02-21T17:36:59;7.07;;;1.90;;
1829;SDS011;914;48.118;11.600;2023-02-21T17:39:26;2.57;;;1.70;;
1829;SDS011;914;48.118;11.600;2023-02-21T17:41:51;4.43;;;2.23;;
1829;SDS011;914;48.118;11.600;2023-02-21T17:44:17;6.23;;;2.30;;
1829;SDS011;914;48.118;11.600;2023-02-21T17:46:46;6.47;;;2.60;;
1829;SDS011;914;48.118;11.600;2023-02-21T17:49:17;5.87;;;2.70;;
1829;SDS011;914;48.118;11.600;2023-02-21T17:51:48;4.50;;;2.00;;
1829;SDS011;914;48.118;11.600;2023-02-21T17:54:15;4.03;;;2.00;;
1829;SDS011;914;48.118;11.600;2023-02-21T17:56:42;7.53;;;2.50;;
1829;SDS011;914;48.118;11.600;2023-02-21T17:59:08;5.00;;;2.93;;
1829;SDS011;914;48.118;11.600;2023-02-21T18:01:34;4.27;;;2.60;;
1829;SDS011;914;48.118;11.600;2023-02-21T18:03:59;6.90;;;2.77;;
1829;SDS011;914;48.118;11.600;2023-02-21T18:06:26;4.97;;;2.80;;
1829;SDS011;914;48.118;11.600;2023-02-21T18:08:52;5.60;;;3.27;;
1829;SDS011;914;48.118;11.600;2023-02-21T18:11:19;4.53;;;2.80;;
1829;SDS011;914;48.118;11.600;2023-02-21T18:13:46;5.03;;;2.70;;
1829;SDS011;914;48.118;11.600;2023-02-21T18:16:12;12.00;;;3.43;;
1829;SDS011;914;48.118;11.600;2023-02-21T18:18:38;8.73;;;3.20;;
1829;SDS011;914;48.118;11.600;2023-02-21T18:21:04;6.83;;;3.37;;
1829;SDS011;914;48.118;11.600;2023-02-21T18:23:31;4.40;;;3.27;;
1829;SDS011;914;48.118;11.600;2023-02-21T18:25:58;9.93;;;3.50;;
1829;SDS011;914;48.118;11.600;2023-02-21T18:28:25;7.23;;;4.13;;
1829;SDS011;914;48.118;11.600;2023-02-21T18:30:51;7.00;;;3.83;;